createdAt,value
2022-12-16T00:00:20.558Z,425.27
2022-12-16T00:01:28.584Z,427.79
2022-12-16T00:02:32.433Z,423.84
2022-12-16T00:03:40.966Z,429.83
2022-12-16T00:04:44.862Z,419.34
2022-12-16T00:05:53.036Z,418.70
2022-12-16T00:06:58.662Z,427.67
2022-12-16T00:08:08.049Z,427.31
2022-12-16T00:09:12.932Z,428.84
2022-12-16T00:10:20.489Z,424.00
2022-12-16T00:11:24.800Z,418.67
2022-12-16T00:12:30.995Z,414.26
2022-12-16T00:13:40.531Z,412.22
2022-12-16T00:14:47.359Z,413.89
2022-12-16T00:15:50.685Z,424.40
2022-12-16T00:16:56.593Z,432.00
2022-12-16T00:17:59.958Z,416.52
2022-12-16T00:19:06.256Z,421.60
2022-12-16T00:20:12.555Z,426.95
2022-12-16T00:21:18.885Z,506.35
2022-12-16T00:22:22.851Z,408.41
2022-12-16T00:23:32.514Z,414.53
2022-12-16T00:24:36.516Z,408.65
2022-12-16T00:25:46.048Z,420.60
2022-12-16T00:26:52.605Z,442.42
2022-12-16T00:28:00.468Z,437.59
2022-12-16T00:29:07.280Z,426.23
2022-12-16T00:30:15.257Z,432.54
2022-12-16T00:31:22.115Z,429.86
2022-12-16T00:32:25.497Z,422.86
2022-12-16T00:33:32.573Z,444.85
2022-12-16T00:34:36.273Z,429.03
2022-12-16T00:35:45.886Z,440.92
2022-12-16T00:36:52.992Z,423.20
2022-12-16T00:37:56.335Z,420.89
2022-12-16T00:39:06.438Z,426.86
2022-12-16T00:40:11.976Z,426.48
2022-12-16T00:41:17.976Z,429.04
2022-12-16T00:42:22.200Z,421.06
2022-12-16T00:43:28.552Z,436.93
2022-12-16T00:44:32.058Z,432.75
2022-12-16T00:45:39.305Z,445.06
2022-12-16T00:46:42.842Z,428.52
2022-12-16T00:47:54.407Z,437.93
2022-12-16T00:48:58.616Z,420.63
2022-12-16T00:50:05.128Z,427.10
2022-12-16T00:51:08.535Z,423.70
2022-12-16T00:52:14.409Z,428.21
2022-12-16T00:53:18.993Z,434.78
2022-12-16T00:54:32.116Z,433.39
2022-12-16T00:55:35.450Z,441.19
2022-12-16T00:56:41.508Z,429.31
2022-12-16T00:57:45.758Z,423.97
2022-12-16T00:58:52.520Z,444.40
2022-12-16T00:59:58.224Z,442.08
2022-12-16T01:01:06.025Z,442.75
2022-12-16T01:02:11.332Z,429.12
2022-12-16T01:03:21.470Z,453.57
2022-12-16T01:04:29.678Z,449.63
2022-12-16T01:05:33.084Z,478.19
2022-12-16T01:06:39.117Z,465.38
2022-12-16T01:07:42.994Z,477.46
2022-12-16T01:08:49.485Z,471.45
2022-12-16T01:09:56.271Z,489.09
2022-12-16T01:11:02.278Z,490.54
2022-12-16T01:12:06.646Z,493.53
2022-12-16T01:13:12.922Z,485.67
2022-12-16T01:14:19.652Z,468.69
2022-12-16T01:15:24.290Z,458.06
2022-12-16T01:16:30.424Z,443.26
2022-12-16T01:17:35.303Z,465.23
2022-12-16T01:18:41.573Z,464.69
2022-12-16T01:19:47.569Z,449.62
2022-12-16T01:20:51.881Z,445.70
2022-12-16T01:21:57.825Z,440.62
2022-12-16T01:23:01.532Z,442.08
2022-12-16T01:24:13.315Z,432.52
2022-12-16T01:25:19.432Z,426.82
2022-12-16T01:26:26.972Z,434.87
2022-12-16T01:27:30.899Z,425.61
2022-12-16T01:28:36.852Z,432.86
2022-12-16T01:29:40.806Z,424.23
2022-12-16T01:30:46.767Z,421.76
2022-12-16T01:31:51.560Z,436.30
2022-12-16T01:32:58.241Z,446.92
2022-12-16T01:34:01.529Z,439.81
2022-12-16T01:35:29.489Z,443.34
2022-12-16T01:36:35.626Z,426.83
2022-12-16T01:37:40.089Z,439.49
2022-12-16T01:38:48.084Z,444.47
2022-12-16T01:39:52.580Z,456.92
2022-12-16T01:41:01.364Z,436.11
2022-12-16T01:42:12.368Z,440.72
2022-12-16T01:43:24.427Z,449.17
2022-12-16T01:44:28.290Z,446.03
2022-12-16T01:45:38.924Z,433.46
2022-12-16T01:46:47.645Z,424.15
2022-12-16T01:47:58.064Z,446.50
2022-12-16T01:49:14.401Z,442.48
2022-12-16T01:50:19.558Z,440.28
2022-12-16T01:51:33.215Z,454.46
2022-12-16T01:52:44.442Z,446.41
2022-12-16T01:53:58.976Z,446.98
2022-12-16T01:55:12.439Z,453.48
2022-12-16T01:56:27.718Z,437.05
2022-12-16T01:57:41.151Z,442.08
2022-12-16T01:58:49.748Z,438.50
2022-12-16T01:59:57.940Z,453.54
2022-12-16T02:01:06.403Z,441.52
2022-12-16T02:02:12.172Z,439.96
2022-12-16T02:03:19.869Z,433.09
2022-12-16T02:04:23.411Z,424.09
2022-12-16T02:05:32.041Z,432.61
2022-12-16T02:06:36.212Z,426.73
2022-12-16T02:07:42.105Z,423.12
2022-12-16T02:08:47.981Z,445.66
2022-12-16T02:09:52.167Z,453.05
2022-12-16T02:11:26.850Z,430.20
2022-12-16T02:12:52.510Z,442.53
2022-12-16T02:14:39.196Z,434.69
2022-12-16T02:15:57.843Z,441.61
2022-12-16T02:17:17.485Z,441.98
2022-12-16T02:18:39.702Z,444.20
2022-12-16T02:20:19.883Z,448.14
2022-12-16T02:21:51.840Z,443.50
2022-12-16T02:23:37.016Z,463.35
2022-12-16T02:25:35.637Z,474.41
2022-12-16T02:27:30.208Z,458.70
2022-12-16T02:29:12.886Z,468.43
2022-12-16T02:30:56.508Z,443.72
2022-12-16T02:32:20.139Z,448.92
2022-12-16T02:34:13.617Z,455.30
2022-12-16T02:35:36.065Z,429.74
2022-12-16T02:37:05.871Z,424.53
2022-12-16T02:38:29.019Z,445.23
2022-12-16T02:39:40.134Z,457.88
2022-12-16T02:40:58.791Z,428.75
2022-12-16T02:42:17.450Z,437.22
2022-12-16T02:43:53.633Z,433.98
2022-12-16T02:45:09.196Z,433.39
2022-12-16T02:46:20.164Z,439.69
2022-12-16T02:47:27.206Z,445.14
2022-12-16T02:48:30.805Z,435.50
2022-12-16T02:49:53.177Z,442.95
2022-12-16T02:50:56.984Z,425.49
2022-12-16T02:52:05.492Z,432.93
2022-12-16T02:53:13.871Z,439.41
2022-12-16T02:54:19.449Z,450.79
2022-12-16T02:55:41.454Z,430.33
2022-12-16T02:57:06.085Z,456.94
2022-12-16T02:58:28.244Z,426.03
2022-12-16T02:59:49.757Z,431.02
2022-12-16T03:01:11.961Z,431.98
2022-12-16T03:02:31.383Z,441.83
2022-12-16T03:03:49.780Z,439.78
2022-12-16T03:05:08.938Z,438.11
2022-12-16T03:06:22.266Z,450.04
2022-12-16T03:07:32.515Z,441.65
2022-12-16T03:08:47.212Z,469.73
2022-12-16T03:09:55.311Z,491.82
2022-12-16T03:11:08.389Z,460.08
2022-12-16T03:12:18.569Z,468.69
2022-12-16T03:13:28.064Z,471.06
2022-12-16T03:14:39.696Z,457.16
2022-12-16T03:15:51.590Z,485.06
2022-12-16T03:16:56.117Z,472.85
2022-12-16T03:18:10.873Z,503.89
2022-12-16T03:19:14.871Z,503.24
2022-12-16T03:20:30.455Z,520.56
2022-12-16T03:21:48.120Z,483.33
2022-12-16T03:22:55.827Z,461.92
2022-12-16T03:24:08.555Z,466.32
2022-12-16T03:25:12.744Z,453.45
2022-12-16T03:26:27.999Z,456.78
2022-12-16T03:27:46.752Z,447.43
2022-12-16T03:29:02.256Z,453.57
2022-12-16T03:30:13.556Z,455.56
2022-12-16T03:31:41.918Z,457.35
2022-12-16T03:32:57.182Z,459.47
2022-12-16T03:34:17.936Z,463.98
2022-12-16T03:35:29.267Z,457.35
2022-12-16T03:36:42.856Z,464.81
2022-12-16T03:37:53.371Z,465.16
2022-12-16T03:39:02.820Z,466.47
2022-12-16T03:40:14.887Z,457.98
2022-12-16T03:41:24.136Z,461.10
2022-12-16T03:42:31.590Z,464.25
2022-12-16T03:43:35.560Z,476.31
2022-12-16T03:44:42.776Z,465.30
2022-12-16T03:45:52.091Z,466.87
2022-12-16T03:46:58.226Z,473.00
2022-12-16T03:48:02.426Z,463.32
2022-12-16T03:49:11.023Z,487.74
2022-12-16T03:50:14.760Z,484.05
2022-12-16T03:51:21.739Z,493.08
2022-12-16T03:52:25.105Z,493.39
2022-12-16T03:53:32.350Z,497.30
2022-12-16T03:54:38.600Z,492.86
2022-12-16T03:55:41.918Z,474.31
2022-12-16T03:56:47.883Z,488.77
2022-12-16T03:57:51.293Z,497.34
2022-12-16T03:58:58.919Z,492.26
2022-12-16T04:00:02.296Z,483.69
2022-12-16T04:01:18.642Z,478.04
2022-12-16T04:02:22.249Z,487.04
2022-12-16T04:03:28.339Z,477.99
2022-12-16T04:04:35.231Z,489.00
2022-12-16T04:05:41.703Z,490.47
2022-12-16T04:06:45.095Z,476.35
2022-12-16T04:07:51.080Z,468.70
2022-12-16T04:08:54.575Z,481.43
2022-12-16T04:10:01.376Z,484.35
2022-12-16T04:11:19.735Z,479.45
2022-12-16T04:12:38.287Z,467.41
2022-12-16T04:13:56.668Z,475.89
2022-12-16T04:15:15.903Z,484.76
2022-12-16T04:16:34.183Z,486.55
2022-12-16T04:17:52.804Z,483.82
2022-12-16T04:19:11.356Z,484.98
2022-12-16T04:20:40.114Z,465.31
2022-12-16T04:21:58.532Z,476.94
2022-12-16T04:23:17.788Z,473.34
2022-12-16T04:24:32.036Z,477.46
2022-12-16T04:25:41.504Z,470.54
2022-12-16T04:26:59.768Z,460.42
2022-12-16T04:28:06.548Z,451.54
2022-12-16T04:29:09.854Z,443.14
2022-12-16T04:30:23.295Z,459.97
2022-12-16T04:31:27.637Z,455.93
2022-12-16T04:32:56.204Z,456.43
2022-12-16T04:34:14.595Z,419.68
2022-12-16T04:35:36.779Z,438.43
2022-12-16T04:37:04.645Z,447.94
2022-12-16T04:38:23.094Z,431.64
2022-12-16T04:39:50.185Z,422.13
2022-12-16T04:41:08.709Z,428.33
2022-12-16T04:42:27.664Z,451.71
2022-12-16T04:43:46.074Z,442.00
2022-12-16T04:45:04.596Z,432.25
2022-12-16T04:46:23.069Z,447.33
2022-12-16T04:47:42.297Z,441.00
2022-12-16T04:49:00.698Z,440.27
2022-12-16T04:50:19.347Z,435.17
2022-12-16T04:51:40.244Z,438.83
2022-12-16T04:52:59.341Z,445.47
2022-12-16T04:54:17.988Z,465.22
2022-12-16T04:55:36.481Z,447.50
2022-12-16T04:56:54.770Z,456.00
2022-12-16T04:58:17.385Z,453.28
2022-12-16T04:59:35.732Z,464.47
2022-12-16T05:00:55.751Z,465.26
2022-12-16T05:02:14.529Z,476.47
2022-12-16T05:03:33.859Z,477.40
2022-12-16T05:04:52.456Z,484.50
2022-12-16T05:06:10.730Z,504.52
2022-12-16T05:07:37.772Z,501.21
2022-12-16T05:08:57.407Z,513.31
2022-12-16T05:10:15.740Z,492.05
2022-12-16T05:11:34.044Z,482.38
2022-12-16T05:12:52.460Z,493.66
2022-12-16T05:14:11.590Z,470.13
2022-12-16T05:15:30.158Z,469.96
2022-12-16T05:16:48.579Z,472.76
2022-12-16T05:18:06.886Z,457.88
2022-12-16T05:19:31.473Z,447.51
2022-12-16T05:20:50.348Z,450.52
2022-12-16T05:22:09.247Z,448.25
2022-12-16T05:23:30.632Z,450.78
2022-12-16T05:24:53.060Z,437.23
2022-12-16T05:26:11.707Z,418.06
2022-12-16T05:27:30.061Z,432.12
2022-12-16T05:28:48.492Z,424.35
2022-12-16T05:30:07.703Z,433.41
2022-12-16T05:31:26.169Z,427.99
2022-12-16T05:32:44.631Z,418.85
2022-12-16T05:34:03.104Z,409.30
2022-12-16T05:35:23.038Z,414.50
2022-12-16T05:36:41.324Z,408.76
2022-12-16T05:37:59.614Z,408.07
2022-12-16T05:39:23.220Z,410.93
2022-12-16T05:40:42.468Z,413.95
2022-12-16T05:42:00.784Z,404.80
2022-12-16T05:43:19.190Z,410.11
2022-12-16T05:44:37.544Z,414.68
2022-12-16T05:45:57.845Z,405.22
2022-12-16T05:47:16.274Z,403.39
2022-12-16T05:48:34.705Z,405.54
2022-12-16T05:49:53.344Z,392.97
2022-12-16T05:51:13.054Z,384.94
2022-12-16T05:52:32.556Z,403.11
2022-12-16T05:53:51.061Z,402.66
2022-12-16T05:55:12.272Z,403.79
2022-12-16T05:56:31.370Z,397.46
2022-12-16T05:57:49.864Z,399.50
2022-12-16T05:59:08.264Z,414.34
2022-12-16T06:00:28.913Z,412.73
2022-12-16T06:01:48.136Z,407.65
2022-12-16T06:03:06.684Z,399.14
2022-12-16T06:04:30.940Z,392.81
2022-12-16T06:05:49.349Z,399.34
2022-12-16T06:07:08.625Z,389.43
2022-12-16T06:08:27.005Z,385.21
2022-12-16T06:09:56.307Z,399.47
2022-12-16T06:11:17.678Z,398.62
2022-12-16T06:12:36.853Z,379.60
2022-12-16T06:13:55.204Z,398.42
2022-12-16T06:15:13.688Z,413.73
2022-12-16T06:16:32.062Z,409.88
2022-12-16T06:17:51.442Z,399.85
2022-12-16T06:19:09.838Z,398.27
2022-12-16T06:20:28.388Z,412.66
2022-12-16T06:21:46.822Z,392.60
2022-12-16T06:23:07.303Z,392.44
2022-12-16T06:24:25.956Z,374.87
2022-12-16T06:25:44.924Z,375.76
2022-12-16T06:27:05.909Z,377.16
2022-12-16T06:28:25.080Z,405.12
2022-12-16T06:29:43.419Z,403.71
2022-12-16T06:31:01.824Z,395.46
2022-12-16T06:32:20.313Z,386.55
2022-12-16T06:33:39.877Z,391.60
2022-12-16T06:34:58.261Z,377.24
2022-12-16T06:36:16.502Z,389.47
2022-12-16T06:37:35.810Z,382.47
2022-12-16T06:38:54.902Z,364.95
2022-12-16T06:40:13.379Z,377.57
2022-12-16T06:41:31.886Z,382.70
2022-12-16T06:42:55.989Z,381.99
2022-12-16T06:44:15.472Z,382.54
2022-12-16T06:45:48.867Z,374.29
2022-12-16T06:47:07.314Z,377.50
2022-12-16T06:48:27.076Z,378.69
2022-12-16T06:49:46.352Z,373.15
2022-12-16T06:51:19.403Z,382.51
2022-12-16T06:52:37.758Z,387.00
2022-12-16T06:53:56.506Z,381.20
2022-12-16T06:55:15.953Z,379.79
2022-12-16T06:56:35.230Z,385.28
2022-12-16T06:57:56.503Z,373.29
2022-12-16T06:59:17.542Z,367.45
2022-12-16T07:00:39.704Z,377.96
2022-12-16T07:01:59.753Z,379.63
2022-12-16T07:03:18.429Z,366.80
2022-12-16T07:04:37.111Z,381.56
2022-12-16T07:05:56.923Z,384.62
2022-12-16T07:07:15.511Z,375.28
2022-12-16T07:08:34.047Z,370.91
2022-12-16T07:09:53.470Z,367.67
2022-12-16T07:11:17.285Z,359.12
2022-12-16T07:12:36.106Z,366.21
2022-12-16T07:14:11.846Z,364.69
2022-12-16T07:15:30.518Z,354.64
2022-12-16T07:16:50.234Z,348.95
2022-12-16T07:18:08.614Z,369.06
2022-12-16T07:19:26.898Z,362.90
2022-12-16T07:20:45.948Z,377.92
2022-12-16T07:22:05.163Z,377.58
2022-12-16T07:23:23.555Z,368.32
2022-12-16T07:24:41.876Z,366.88
2022-12-16T07:26:00.342Z,355.65
2022-12-16T07:27:20.351Z,374.26
2022-12-16T07:28:38.781Z,368.43
2022-12-16T07:29:59.907Z,365.55
2022-12-16T07:31:18.415Z,366.23
2022-12-16T07:32:37.603Z,371.59
2022-12-16T07:33:56.134Z,379.01
2022-12-16T07:35:14.415Z,377.50
2022-12-16T07:36:33.448Z,407.09
2022-12-16T07:37:54.980Z,418.92
2022-12-16T07:39:13.588Z,469.99
2022-12-16T07:40:32.130Z,474.40
2022-12-16T07:41:50.460Z,452.01
2022-12-16T07:43:12.075Z,468.52
2022-12-16T07:44:30.524Z,462.57
2022-12-16T07:45:51.529Z,493.06
2022-12-16T07:47:11.718Z,474.09
2022-12-16T07:48:39.957Z,480.83
2022-12-16T07:49:58.276Z,458.78
2022-12-16T07:51:18.220Z,454.75
2022-12-16T07:52:36.735Z,468.69
2022-12-16T07:54:07.796Z,513.36
2022-12-16T07:55:26.207Z,480.71
2022-12-16T07:56:44.511Z,465.88
2022-12-16T07:58:06.135Z,474.10
2022-12-16T07:59:25.240Z,467.28
2022-12-16T08:00:43.598Z,443.84
2022-12-16T08:02:04.726Z,449.52
2022-12-16T08:03:23.263Z,452.36
2022-12-16T08:04:42.648Z,438.26
2022-12-16T08:06:00.982Z,443.93
2022-12-16T08:07:19.813Z,439.39
2022-12-16T08:08:38.314Z,442.22
2022-12-16T08:09:57.446Z,437.91
2022-12-16T08:11:15.949Z,445.82
2022-12-16T08:12:34.360Z,448.70
2022-12-16T08:13:53.465Z,454.69
2022-12-16T08:15:13.051Z,466.12
2022-12-16T08:16:46.394Z,472.65
2022-12-16T08:18:09.009Z,471.50
2022-12-16T08:19:28.222Z,469.99
2022-12-16T08:20:47.730Z,450.70
2022-12-16T08:22:06.157Z,454.00
2022-12-16T08:23:24.361Z,455.62
2022-12-16T08:24:46.832Z,460.96
2022-12-16T08:26:10.710Z,466.76
2022-12-16T08:27:29.210Z,465.34
2022-12-16T08:28:47.587Z,462.08
2022-12-16T08:30:05.957Z,464.30
2022-12-16T08:31:25.208Z,474.11
2022-12-16T08:32:45.976Z,464.66
2022-12-16T08:34:06.953Z,494.92
2022-12-16T08:35:26.387Z,504.86
2022-12-16T08:36:45.575Z,508.20
2022-12-16T08:38:09.063Z,497.47
2022-12-16T08:39:31.990Z,489.13
2022-12-16T08:40:50.418Z,502.46
2022-12-16T08:42:11.511Z,490.71
2022-12-16T08:43:30.499Z,493.63
2022-12-16T08:44:49.209Z,460.50
2022-12-16T08:46:10.224Z,455.10
2022-12-16T08:47:32.492Z,474.96
2022-12-16T08:48:50.957Z,449.18
2022-12-16T08:50:11.957Z,485.96
2022-12-16T08:51:30.577Z,487.40
2022-12-16T08:52:49.916Z,478.30
2022-12-16T08:54:08.826Z,504.54
2022-12-16T08:55:29.739Z,529.16
2022-12-16T08:56:48.689Z,517.27
2022-12-16T08:58:11.496Z,515.32
2022-12-16T08:59:30.487Z,504.18
2022-12-16T09:00:48.995Z,485.82
2022-12-16T09:02:07.868Z,458.01
2022-12-16T09:03:28.347Z,473.90
2022-12-16T09:04:49.103Z,465.31
2022-12-16T09:06:14.478Z,476.49
2022-12-16T09:07:33.119Z,482.90
2022-12-16T09:08:53.837Z,481.87
2022-12-16T09:10:12.427Z,456.04
2022-12-16T09:11:31.226Z,466.00
2022-12-16T09:12:50.043Z,466.78
2022-12-16T09:14:10.123Z,464.54
2022-12-16T09:15:28.807Z,450.30
2022-12-16T09:16:47.233Z,460.51
2022-12-16T09:18:10.137Z,467.26
2022-12-16T09:19:29.547Z,468.29
2022-12-16T09:20:47.947Z,469.34
2022-12-16T09:22:08.978Z,492.19
2022-12-16T09:23:27.313Z,647.67
2022-12-16T09:24:46.723Z,577.23
2022-12-16T09:26:05.465Z,521.31
2022-12-16T09:27:23.977Z,526.88
2022-12-16T09:28:43.256Z,549.28
2022-12-16T09:30:05.415Z,515.07
2022-12-16T09:31:23.910Z,542.13
2022-12-16T09:32:42.555Z,580.33
2022-12-16T09:34:00.883Z,593.57
2022-12-16T09:35:21.090Z,552.77
2022-12-16T09:36:39.407Z,493.82
2022-12-16T09:38:05.743Z,494.41
2022-12-16T09:39:24.121Z,504.98
2022-12-16T09:40:43.404Z,525.90
2022-12-16T09:42:30.894Z,516.37
2022-12-16T09:44:12.399Z,482.64
2022-12-16T09:45:47.832Z,518.97
2022-12-16T09:47:25.948Z,539.59
2022-12-16T09:49:01.532Z,543.52
2022-12-16T09:50:33.559Z,570.87
2022-12-16T09:51:56.163Z,512.71
2022-12-16T09:53:27.100Z,483.53
2022-12-16T09:55:03.534Z,502.95
2022-12-16T09:56:32.734Z,508.32
2022-12-16T09:57:53.708Z,478.69
2022-12-16T09:59:27.074Z,455.78
2022-12-16T10:00:46.845Z,479.43
2022-12-16T10:02:08.438Z,505.79
2022-12-16T10:03:39.891Z,516.21
2022-12-16T10:05:16.004Z,517.33
2022-12-16T10:06:54.215Z,536.23
2022-12-16T10:08:37.267Z,498.95
2022-12-16T10:10:14.817Z,544.37
2022-12-16T10:11:52.616Z,584.40
2022-12-16T10:13:24.827Z,583.86
2022-12-16T10:14:54.724Z,607.44
2022-12-16T10:16:34.512Z,532.59
2022-12-16T10:18:01.657Z,541.93
2022-12-16T10:19:48.920Z,583.30
2022-12-16T10:21:11.336Z,563.63
2022-12-16T10:22:41.379Z,606.99
2022-12-16T10:24:16.664Z,639.64
2022-12-16T10:25:42.263Z,628.19
2022-12-16T10:27:13.808Z,595.94
2022-12-16T10:28:38.551Z,578.29
2022-12-16T10:30:01.810Z,574.49
2022-12-16T10:31:31.979Z,573.97
2022-12-16T10:32:59.112Z,554.69
2022-12-16T10:34:25.737Z,585.09
2022-12-16T10:35:52.735Z,628.55
2022-12-16T10:37:20.450Z,672.90
2022-12-16T10:38:52.402Z,650.31
2022-12-16T10:40:18.164Z,627.93
2022-12-16T10:41:44.781Z,597.23
2022-12-16T10:43:31.185Z,608.13
2022-12-16T10:45:03.404Z,614.12
2022-12-16T10:46:41.000Z,661.40
2022-12-16T10:48:00.579Z,589.11
2022-12-16T10:49:19.159Z,589.48
2022-12-16T10:50:37.884Z,586.71
2022-12-16T10:51:56.211Z,619.79
2022-12-16T10:53:20.075Z,601.11
2022-12-16T10:54:54.256Z,603.07
2022-12-16T10:56:40.632Z,624.09
2022-12-16T10:58:18.163Z,649.11
2022-12-16T10:59:37.801Z,585.78
2022-12-16T11:01:01.745Z,561.75
2022-12-16T11:02:34.344Z,593.64
2022-12-16T11:03:55.211Z,602.78
2022-12-16T11:05:14.455Z,584.59
2022-12-16T11:06:40.421Z,644.94
2022-12-16T11:08:09.598Z,659.03
2022-12-16T11:09:43.006Z,611.04
2022-12-16T11:11:02.260Z,666.57
2022-12-16T11:12:38.574Z,682.84
2022-12-16T11:13:56.976Z,646.86
2022-12-16T11:15:30.699Z,599.45
2022-12-16T11:16:50.033Z,621.80
2022-12-16T11:18:20.231Z,612.86
2022-12-16T11:19:42.039Z,662.50
2022-12-16T11:21:04.150Z,620.88
2022-12-16T11:22:30.728Z,567.07
2022-12-16T11:23:49.155Z,567.96
2022-12-16T11:25:28.671Z,579.65
2022-12-16T11:26:47.040Z,606.63
2022-12-16T11:28:19.560Z,572.16
2022-12-16T11:29:38.167Z,580.72
2022-12-16T11:30:56.570Z,637.19
2022-12-16T11:32:49.103Z,599.31
2022-12-16T11:34:11.354Z,555.90
2022-12-16T11:35:39.617Z,498.30
2022-12-16T11:37:03.490Z,519.68
2022-12-16T11:38:37.006Z,578.47
2022-12-16T11:40:08.346Z,514.09
2022-12-16T11:41:45.963Z,550.76
2022-12-16T11:43:11.657Z,620.10
2022-12-16T11:44:44.509Z,676.54
2022-12-16T11:46:07.959Z,662.45
2022-12-16T11:47:39.712Z,613.50
2022-12-16T11:49:05.211Z,608.39
2022-12-16T11:50:33.018Z,645.58
2022-12-16T11:52:28.116Z,621.44
2022-12-16T11:53:49.950Z,575.99
2022-12-16T11:55:56.011Z,572.22
2022-12-16T11:57:09.432Z,597.00
2022-12-16T11:58:43.386Z,620.26
2022-12-16T12:00:14.654Z,641.70
2022-12-16T12:01:45.470Z,629.95
2022-12-16T12:03:16.931Z,639.16
2022-12-16T12:04:35.532Z,626.61
2022-12-16T12:06:20.683Z,648.79
2022-12-16T12:07:50.516Z,747.98
2022-12-16T12:09:22.610Z,717.86
2022-12-16T12:11:11.591Z,656.07
2022-12-16T12:12:48.060Z,676.75
2022-12-16T12:14:27.155Z,643.11
2022-12-16T12:16:01.164Z,611.42
2022-12-16T12:17:47.044Z,667.43
2022-12-16T12:19:21.569Z,759.42
2022-12-16T12:21:02.560Z,656.92
2022-12-16T12:22:36.613Z,738.57
2022-12-16T12:24:13.768Z,725.82
2022-12-16T12:25:48.008Z,662.57
2022-12-16T12:27:19.547Z,637.18
2022-12-16T12:28:58.988Z,710.06
2022-12-16T12:30:25.639Z,711.34
2022-12-16T12:32:04.407Z,683.34
2022-12-16T12:33:46.885Z,682.52
2022-12-16T12:35:28.331Z,706.32
2022-12-16T12:37:04.472Z,613.95
2022-12-16T12:38:35.206Z,587.97
2022-12-16T12:40:12.614Z,625.89
2022-12-16T12:41:43.252Z,637.61
2022-12-16T12:43:09.031Z,594.74
2022-12-16T12:44:54.600Z,648.85
2022-12-16T12:46:30.216Z,678.65
2022-12-16T12:48:02.840Z,677.58
2022-12-16T12:49:37.562Z,627.32
2022-12-16T12:51:21.408Z,600.12
2022-12-16T12:53:18.657Z,602.33
2022-12-16T12:54:57.647Z,592.95
2022-12-16T12:56:31.986Z,595.70
2022-12-16T12:57:56.936Z,593.73
2022-12-16T12:59:27.405Z,555.73
2022-12-16T13:00:57.275Z,570.30
2022-12-16T13:02:20.678Z,587.62
2022-12-16T13:03:54.385Z,599.23
2022-12-16T13:05:19.731Z,615.09
2022-12-16T13:06:50.126Z,615.50
2022-12-16T13:08:09.572Z,584.63
2022-12-16T13:09:45.367Z,641.11
2022-12-16T13:11:03.652Z,642.51
2022-12-16T13:12:50.321Z,647.00
2022-12-16T13:14:08.647Z,646.93
2022-12-16T13:15:48.141Z,655.18
2022-12-16T13:17:17.996Z,631.25
2022-12-16T13:18:49.345Z,606.28
2022-12-16T13:20:14.437Z,645.75
2022-12-16T13:22:02.205Z,570.72
2022-12-16T13:23:46.939Z,600.07
2022-12-16T13:25:08.130Z,562.96
2022-12-16T13:26:26.631Z,582.46
2022-12-16T13:28:05.003Z,557.01
2022-12-16T13:29:38.350Z,568.45
2022-12-16T13:31:25.255Z,545.03
2022-12-16T13:32:44.664Z,585.87
2022-12-16T13:34:12.540Z,561.00
2022-12-16T13:35:34.438Z,572.37
2022-12-16T13:36:55.924Z,579.47
2022-12-16T13:38:18.655Z,585.47
2022-12-16T13:39:42.744Z,568.48
2022-12-16T13:41:11.912Z,527.49
2022-12-16T13:43:05.159Z,536.69
2022-12-16T13:44:24.897Z,628.06
2022-12-16T13:45:50.988Z,673.14
2022-12-16T13:47:12.368Z,633.83
2022-12-16T13:48:58.702Z,619.50
2022-12-16T13:50:53.247Z,614.42
2022-12-16T13:52:27.707Z,564.87
2022-12-16T13:53:53.670Z,588.35
2022-12-16T13:55:30.530Z,604.92
2022-12-16T13:56:56.977Z,594.24
2022-12-16T13:58:29.121Z,606.24
2022-12-16T13:59:49.030Z,603.98
2022-12-16T14:01:21.211Z,604.80
2022-12-16T14:02:54.077Z,592.02
2022-12-16T14:04:16.223Z,559.97
2022-12-16T14:05:44.696Z,583.49
2022-12-16T14:07:05.721Z,551.01
2022-12-16T14:08:43.103Z,561.05
2022-12-16T14:10:05.397Z,566.93
2022-12-16T14:11:40.189Z,620.90
2022-12-16T14:13:21.877Z,699.58
2022-12-16T14:14:51.273Z,758.48
2022-12-16T14:16:26.431Z,823.73
2022-12-16T14:18:01.094Z,888.04
2022-12-16T14:19:44.133Z,877.19
2022-12-16T14:21:13.611Z,908.52
2022-12-16T14:22:58.345Z,753.43
2022-12-16T14:24:35.896Z,694.37
2022-12-16T14:26:00.644Z,699.29
2022-12-16T14:27:32.799Z,716.07
2022-12-16T14:28:54.976Z,697.23
2022-12-16T14:30:14.931Z,898.69
2022-12-16T14:31:39.630Z,814.63
2022-12-16T14:32:58.165Z,742.97
2022-12-16T14:34:19.404Z,689.65
2022-12-16T14:35:42.806Z,740.64
2022-12-16T14:37:04.470Z,775.52
2022-12-16T14:38:42.289Z,904.58
2022-12-16T14:40:05.825Z,921.66
2022-12-16T14:41:30.290Z,890.54
2022-12-16T14:42:48.867Z,884.65
2022-12-16T14:44:09.981Z,802.41
2022-12-16T14:45:44.834Z,933.34
2022-12-16T14:47:08.358Z,849.76
2022-12-16T14:48:37.481Z,787.96
2022-12-16T14:50:08.049Z,731.63
2022-12-16T14:51:45.734Z,754.67
2022-12-16T14:53:29.565Z,725.59
2022-12-16T14:54:54.785Z,741.90
2022-12-16T14:56:31.103Z,775.88
2022-12-16T14:57:50.112Z,721.77
2022-12-16T14:59:29.792Z,792.52
2022-12-16T15:00:54.751Z,802.01
2022-12-16T15:02:35.861Z,774.16
2022-12-16T15:03:59.569Z,758.35
2022-12-16T15:05:20.800Z,727.57
2022-12-16T15:06:45.383Z,747.68
2022-12-16T15:08:07.050Z,765.69
2022-12-16T15:09:39.430Z,775.77
2022-12-16T15:10:59.758Z,768.03
2022-12-16T15:12:19.426Z,759.04
2022-12-16T15:13:38.713Z,751.15
2022-12-16T15:14:58.584Z,816.02
2022-12-16T15:16:21.841Z,872.78
2022-12-16T15:17:47.015Z,964.55
2022-12-16T15:19:16.312Z,981.58
2022-12-16T15:20:41.801Z,795.35
2022-12-16T15:22:02.565Z,773.51
2022-12-16T15:23:35.248Z,775.05
2022-12-16T15:25:03.859Z,774.17
2022-12-16T15:26:24.303Z,788.40
2022-12-16T15:27:51.809Z,840.77
2022-12-16T15:29:10.601Z,847.45
2022-12-16T15:30:52.303Z,848.73
2022-12-16T15:32:10.637Z,947.83
2022-12-16T15:33:34.961Z,1062.71
2022-12-16T15:35:03.791Z,1051.94
2022-12-16T15:36:40.627Z,1005.78
2022-12-16T15:38:03.897Z,947.39
2022-12-16T15:39:52.233Z,926.60
2022-12-16T15:41:10.729Z,1017.80
2022-12-16T15:42:39.804Z,1018.91
2022-12-16T15:44:03.095Z,937.73
2022-12-16T15:45:35.617Z,861.98
2022-12-16T15:46:54.343Z,965.10
2022-12-16T15:48:14.143Z,990.28
2022-12-16T15:49:39.972Z,927.11
2022-12-16T15:51:09.407Z,991.53
2022-12-16T15:52:53.209Z,881.78
2022-12-16T15:54:19.430Z,894.45
2022-12-16T15:55:47.904Z,901.49
2022-12-16T15:57:07.050Z,916.28
2022-12-16T15:58:40.067Z,948.12
2022-12-16T16:00:13.508Z,1010.56
2022-12-16T16:01:36.629Z,1049.05
2022-12-16T16:03:04.324Z,1035.30
2022-12-16T16:04:37.412Z,904.10
2022-12-16T16:05:56.171Z,874.33
2022-12-16T16:07:14.858Z,887.92
2022-12-16T16:08:34.341Z,843.75
2022-12-16T16:09:55.064Z,841.46
2022-12-16T16:11:16.423Z,842.34
2022-12-16T16:12:38.178Z,921.20
2022-12-16T16:14:04.241Z,1018.26
2022-12-16T16:15:28.801Z,970.47
2022-12-16T16:16:48.099Z,865.15
2022-12-16T16:18:12.186Z,834.32
2022-12-16T16:19:39.827Z,803.63
2022-12-16T16:21:05.351Z,827.70
2022-12-16T16:22:28.938Z,881.35
2022-12-16T16:23:50.928Z,844.48
2022-12-16T16:25:10.480Z,810.33
2022-12-16T16:26:37.244Z,763.92
2022-12-16T16:27:55.561Z,767.11
2022-12-16T16:29:14.084Z,741.08
2022-12-16T16:30:33.371Z,756.05
2022-12-16T16:31:51.740Z,724.05
2022-12-16T16:33:12.806Z,701.85
2022-12-16T16:34:32.027Z,687.92
2022-12-16T16:35:51.289Z,689.31
2022-12-16T16:37:14.612Z,686.66
2022-12-16T16:38:33.038Z,672.55
2022-12-16T16:39:51.338Z,681.60
2022-12-16T16:41:11.039Z,709.88
2022-12-16T16:42:31.993Z,778.58
2022-12-16T16:43:50.404Z,779.35
2022-12-16T16:45:10.935Z,775.10
2022-12-16T16:46:49.963Z,841.09
2022-12-16T16:48:19.761Z,924.53
2022-12-16T16:49:44.530Z,893.86